sensor_id;sensor_type;location;lat;lon;timestamp;pressure;altitude;pressure_sealevel;temperature;humidity
38620;BME280;24376;51.986;4.662;2022-12-29T00:01:28;100963.00;;;11.26;100.00
38620;BME280;24376;51.986;4.662;2022-12-29T00:03:53;100928.94;;;11.26;100.00
38620;BME280;24376;51.986;4.662;2022-12-29T00:06:19;100866.69;;;11.18;100.00
38620;BME280;24376;51.986;4.662;2022-12-29T00:08:44;100822.19;;;11.20;100.00
38620;BME280;24376;51.986;4.662;2022-12-29T00:11:13;100802.91;;;11.18;100.00
38620;BME280;24376;51.986;4.662;2022-12-29T00:13:38;100728.00;;;11.28;100.00
38620;BME280;24376;51.986;4.662;2022-12-29T00:16:22;100680.00;;;11.30;100.00
38620;BME280;24376;51.986;4.662;2022-12-29T00:18:48;100645.13;;;11.34;100.00
38620;BME280;24376;51.986;4.662;2022-12-29T00:21:13;100593.47;;;11.29;100.00
38620;BME280;24376;51.986;4.662;2022-12-29T00:23:58;100535.06;;;11.36;100.00
38620;BME280;24376;51.986;4.662;2022-12-29T00:26:53;100468.63;;;11.35;100.00
38620;BME280;24376;51.986;4.662;2022-12-29T00:29:38;100454.53;;;11.27;100.00
38620;BME280;24376;51.986;4.662;2022-12-29T00:32:22;100389.81;;;11.25;100.00
38620;BME280;24376;51.986;4.662;2022-12-29T00:35:07;100351.53;;;11.34;100.00
38620;BME280;24376;51.986;4.662;2022-12-29T00:37:34;100331.44;;;11.33;100.00
38620;BME280;24376;51.986;4.662;2022-12-29T00:40:18;100303.56;;;11.38;100.00
38620;BME280;24376;51.986;4.662;2022-12-29T00:43:02;100343.41;;;11.17;100.00
38620;BME280;24376;51.986;4.662;2022-12-29T00:45:46;100394.84;;;11.11;100.00
38620;BME280;24376;51.986;4.662;2022-12-29T00:48:11;100442.00;;;11.11;100.00
38620;BME280;24376;51.986;4.662;2022-12-29T00:50:36;100454.31;;;11.15;100.00
38620;BME280;24376;51.986;4.662;2022-12-29T00:53:02;100467.25;;;11.06;100.00
38620;BME280;24376;51.986;4.662;2022-12-29T00:55:27;100489.06;;;11.05;100.00
38620;BME280;24376;51.986;4.662;2022-12-29T00:57:52;100538.66;;;10.96;100.00
38620;BME280;24376;51.986;4.662;2022-12-29T01:00:17;100587.63;;;10.98;100.00
38620;BME280;24376;51.986;4.662;2022-12-29T01:02:42;100651.19;;;10.89;100.00
38620;BME280;24376;51.986;4.662;2022-12-29T01:05:11;100688.53;;;10.79;100.00
38620;BME280;24376;51.986;4.662;2022-12-29T01:07:36;100781.00;;;10.78;100.00
38620;BME280;24376;51.986;4.662;2022-12-29T01:10:01;100845.44;;;10.72;100.00
38620;BME280;24376;51.986;4.662;2022-12-29T01:12:35;100915.38;;;10.74;100.00
38620;BME280;24376;51.986;4.662;2022-12-29T01:15:07;100948.41;;;10.69;100.00
38620;BME280;24376;51.986;4.662;2022-12-29T01:17:33;100995.41;;;10.64;100.00
38620;BME280;24376;51.986;4.662;2022-12-29T01:19:58;101038.16;;;10.63;100.00
38620;BME280;24376;51.986;4.662;2022-12-29T01:22:23;101057.50;;;10.67;100.00
38620;BME280;24376;51.986;4.662;2022-12-29T01:24:48;101068.88;;;10.69;100.00
38620;BME280;24376;51.986;4.662;2022-12-29T01:27:14;101080.34;;;10.73;100.00
38620;BME280;24376;51.986;4.662;2022-12-29T01:29:39;101093.38;;;10.71;100.00
38620;BME280;24376;51.986;4.662;2022-12-29T01:32:04;101108.16;;;10.69;100.00
38620;BME280;24376;51.986;4.662;2022-12-29T01:34:29;101135.25;;;10.70;100.00
38620;BME280;24376;51.986;4.662;2022-12-29T01:36:55;101168.25;;;10.64;100.00
38620;BME280;24376;51.986;4.662;2022-12-29T01:39:20;101203.16;;;10.63;100.00
38620;BME280;24376;51.986;4.662;2022-12-29T01:41:45;101216.28;;;10.65;100.00
38620;BME280;24376;51.986;4.662;2022-12-29T01:46:54;101216.41;;;10.68;100.00
38620;BME280;24376;51.986;4.662;2022-12-29T01:49:21;101213.66;;;10.65;100.00
38620;BME280;24376;51.986;4.662;2022-12-29T01:51:50;101188.97;;;10.57;100.00
38620;BME280;24376;51.986;4.662;2022-12-29T01:54:22;101185.47;;;10.56;100.00
38620;BME280;24376;51.986;4.662;2022-12-29T01:56:50;101191.44;;;10.52;100.00
38620;BME280;24376;51.986;4.662;2022-12-29T01:59:18;101160.06;;;10.54;100.00
38620;BME280;24376;51.986;4.662;2022-12-29T02:01:45;101155.59;;;10.50;100.00
38620;BME280;24376;51.986;4.662;2022-12-29T02:04:10;101141.59;;;10.49;100.00
38620;BME280;24376;51.986;4.662;2022-12-29T02:06:53;101138.16;;;10.50;100.00
38620;BME280;24376;51.986;4.662;2022-12-29T02:09:20;101112.94;;;10.54;100.00
38620;BME280;24376;51.986;4.662;2022-12-29T02:11:45;101079.66;;;10.50;100.00
38620;BME280;24376;51.986;4.662;2022-12-29T02:14:12;101051.84;;;10.55;100.00
38620;BME280;24376;51.986;4.662;2022-12-29T02:16:51;101023.84;;;10.51;100.00
38620;BME280;24376;51.986;4.662;2022-12-29T02:24:37;100955.66;;;10.48;100.00
38620;BME280;24376;51.986;4.662;2022-12-29T02:30:34;100909.38;;;10.47;100.00
38620;BME280;24376;51.986;4.662;2022-12-29T02:35:13;100837.13;;;10.53;100.00
38620;BME280;24376;51.986;4.662;2022-12-29T02:37:46;100802.38;;;10.59;100.00
38620;BME280;24376;51.986;4.662;2022-12-29T02:47:57;100685.53;;;10.64;100.00
38620;BME280;24376;51.986;4.662;2022-12-29T02:50:28;100628.78;;;10.63;100.00
38620;BME280;24376;51.986;4.662;2022-12-29T02:52:59;100586.88;;;10.63;100.00
38620;BME280;24376;51.986;4.662;2022-12-29T02:55:25;100550.88;;;10.53;100.00
38620;BME280;24376;51.986;4.662;2022-12-29T02:58:12;100502.00;;;10.52;100.00
38620;BME280;24376;51.986;4.662;2022-12-29T03:00:41;100469.50;;;10.42;100.00
38620;BME280;24376;51.986;4.662;2022-12-29T03:03:19;100385.59;;;10.33;100.00
38620;BME280;24376;51.986;4.662;2022-12-29T03:11:04;100248.63;;;10.32;100.00
38620;BME280;24376;51.986;4.662;2022-12-29T03:13:43;100210.19;;;10.31;100.00
38620;BME280;24376;51.986;4.662;2022-12-29T03:21:35;100128.47;;;10.48;100.00
38620;BME280;24376;51.986;4.662;2022-12-29T03:24:20;100102.34;;;10.51;100.00
38620;BME280;24376;51.986;4.662;2022-12-29T03:26:47;100084.88;;;10.50;100.00
38620;BME280;24376;51.986;4.662;2022-12-29T03:29:13;100042.00;;;10.40;100.00
38620;BME280;24376;51.986;4.662;2022-12-29T03:31:39;100034.94;;;10.37;100.00
38620;BME280;24376;51.986;4.662;2022-12-29T03:34:05;100048.81;;;10.32;100.00
38620;BME280;24376;51.986;4.662;2022-12-29T03:39:29;100046.28;;;10.35;100.00
38620;BME280;24376;51.986;4.662;2022-12-29T03:41:58;100050.66;;;10.37;100.00
38620;BME280;24376;51.986;4.662;2022-12-29T03:44:32;100023.66;;;10.38;100.00
38620;BME280;24376;51.986;4.662;2022-12-29T03:46:58;100034.94;;;10.36;100.00
38620;BME280;24376;51.986;4.662;2022-12-29T03:49:23;100030.56;;;10.33;100.00
38620;BME280;24376;51.986;4.662;2022-12-29T03:51:48;100040.94;;;10.27;100.00
38620;BME280;24376;51.986;4.662;2022-12-29T03:54:13;100053.03;;;10.22;100.00
38620;BME280;24376;51.986;4.662;2022-12-29T03:56:39;100044.50;;;10.32;100.00
38620;BME280;24376;51.986;4.662;2022-12-29T03:59:04;100024.31;;;10.24;100.00
38620;BME280;24376;51.986;4.662;2022-12-29T04:01:29;99991.38;;;10.38;100.00
38620;BME280;24376;51.986;4.662;2022-12-29T04:03:54;99997.47;;;10.38;100.00
38620;BME280;24376;51.986;4.662;2022-12-29T04:06:19;99939.91;;;10.38;100.00
38620;BME280;24376;51.986;4.662;2022-12-29T04:08:45;99932.78;;;10.28;100.00
38620;BME280;24376;51.986;4.662;2022-12-29T04:11:10;99904.00;;;10.27;100.00
38620;BME280;24376;51.986;4.662;2022-12-29T04:13:35;99959.66;;;10.20;100.00
38620;BME280;24376;51.986;4.662;2022-12-29T04:16:00;99922.28;;;10.25;100.00
38620;BME280;24376;51.986;4.662;2022-12-29T04:18:26;99882.91;;;10.19;100.00
38620;BME280;24376;51.986;4.662;2022-12-29T04:20:51;99890.75;;;10.16;100.00
38620;BME280;24376;51.986;4.662;2022-12-29T04:23:26;99880.22;;;10.13;100.00
38620;BME280;24376;51.986;4.662;2022-12-29T04:25:51;99900.13;;;9.99;100.00
38620;BME280;24376;51.986;4.662;2022-12-29T04:28:16;99965.19;;;9.79;100.00
38620;BME280;24376;51.986;4.662;2022-12-29T04:30:42;99992.84;;;9.63;100.00
38620;BME280;24376;51.986;4.662;2022-12-29T04:33:07;100046.78;;;9.59;100.00
38620;BME280;24376;51.986;4.662;2022-12-29T04:35:33;100078.06;;;9.55;100.00
38620;BME280;24376;51.986;4.662;2022-12-29T04:38:00;100122.41;;;9.50;100.00
38620;BME280;24376;51.986;4.662;2022-12-29T04:40:25;100163.28;;;9.47;100.00
38620;BME280;24376;51.986;4.662;2022-12-29T04:42:50;100212.09;;;9.48;100.00
38620;BME280;24376;51.986;4.662;2022-12-29T04:45:16;100237.31;;;9.46;100.00
38620;BME280;24376;51.986;4.662;2022-12-29T04:47:41;100272.19;;;9.48;100.00
38620;BME280;24376;51.986;4.662;2022-12-29T04:50:07;100281.13;;;9.57;100.00
38620;BME280;24376;51.986;4.662;2022-12-29T04:52:32;100305.63;;;9.63;100.00
38620;BME280;24376;51.986;4.662;2022-12-29T04:54:58;100305.72;;;9.67;100.00
38620;BME280;24376;51.986;4.662;2022-12-29T04:57:23;100331.06;;;9.71;100.00
38620;BME280;24376;51.986;4.662;2022-12-29T04:59:48;100334.66;;;9.75;100.00
38620;BME280;24376;51.986;4.662;2022-12-29T05:02:13;100340.56;;;9.66;100.00
38620;BME280;24376;51.986;4.662;2022-12-29T05:04:38;100366.84;;;9.74;100.00
38620;BME280;24376;51.986;4.662;2022-12-29T05:07:04;100399.06;;;9.71;100.00
38620;BME280;24376;51.986;4.662;2022-12-29T05:09:29;100423.09;;;9.56;100.00
38620;BME280;24376;51.986;4.662;2022-12-29T05:11:54;100464.53;;;9.40;100.00
38620;BME280;24376;51.986;4.662;2022-12-29T05:14:20;100540.97;;;9.32;100.00
38620;BME280;24376;51.986;4.662;2022-12-29T05:16:45;100609.59;;;9.25;100.00
38620;BME280;24376;51.986;4.662;2022-12-29T05:19:10;100685.31;;;9.24;100.00
38620;BME280;24376;51.986;4.662;2022-12-29T05:21:35;100742.84;;;9.25;100.00
38620;BME280;24376;51.986;4.662;2022-12-29T05:24:00;100774.38;;;9.31;100.00
38620;BME280;24376;51.986;4.662;2022-12-29T05:26:26;100786.53;;;9.29;100.00
38620;BME280;24376;51.986;4.662;2022-12-29T05:28:51;100793.41;;;9.27;100.00
38620;BME280;24376;51.986;4.662;2022-12-29T05:34:02;100821.19;;;9.24;100.00
38620;BME280;24376;51.986;4.662;2022-12-29T05:36:27;100808.19;;;9.27;100.00
38620;BME280;24376;51.986;4.662;2022-12-29T05:38:53;100808.09;;;9.22;100.00
38620;BME280;24376;51.986;4.662;2022-12-29T05:41:18;100806.25;;;9.20;100.00
38620;BME280;24376;51.986;4.662;2022-12-29T05:43:43;100812.34;;;9.20;100.00
38620;BME280;24376;51.986;4.662;2022-12-29T05:46:08;100830.59;;;9.19;100.00
38620;BME280;24376;51.986;4.662;2022-12-29T05:48:34;100829.59;;;9.15;100.00
38620;BME280;24376;51.986;4.662;2022-12-29T05:50:59;100825.97;;;9.10;100.00
38620;BME280;24376;51.986;4.662;2022-12-29T05:53:24;100837.22;;;9.07;100.00
38620;BME280;24376;51.986;4.662;2022-12-29T05:55:49;100875.56;;;9.09;100.00
38620;BME280;24376;51.986;4.662;2022-12-29T05:58:15;100868.53;;;9.06;100.00
38620;BME280;24376;51.986;4.662;2022-12-29T06:00:40;100864.34;;;9.11;100.00
38620;BME280;24376;51.986;4.662;2022-12-29T06:03:06;100862.97;;;8.97;100.00
38620;BME280;24376;51.986;4.662;2022-12-29T06:05:31;100897.25;;;9.06;100.00
38620;BME280;24376;51.986;4.662;2022-12-29T06:07:56;100910.03;;;8.98;100.00
38620;BME280;24376;51.986;4.662;2022-12-29T06:10:21;100912.41;;;8.91;100.00
38620;BME280;24376;51.986;4.662;2022-12-29T06:12:46;100904.47;;;8.88;100.00
38620;BME280;24376;51.986;4.662;2022-12-29T06:15:12;100897.50;;;9.14;100.00
38620;BME280;24376;51.986;4.662;2022-12-29T06:17:37;100854.97;;;9.18;100.00
38620;BME280;24376;51.986;4.662;2022-12-29T06:20:02;100825.53;;;9.23;100.00
38620;BME280;24376;51.986;4.662;2022-12-29T06:22:28;100797.53;;;9.19;100.00
38620;BME280;24376;51.986;4.662;2022-12-29T06:24:53;100772.25;;;9.18;100.00
38620;BME280;24376;51.986;4.662;2022-12-29T06:27:18;100722.75;;;9.23;100.00
38620;BME280;24376;51.986;4.662;2022-12-29T06:29:43;100649.59;;;9.23;100.00
38620;BME280;24376;51.986;4.662;2022-12-29T06:32:09;100548.22;;;9.43;100.00
38620;BME280;24376;51.986;4.662;2022-12-29T06:34:34;100506.41;;;9.43;100.00
38620;BME280;24376;51.986;4.662;2022-12-29T06:36:59;100471.59;;;9.44;100.00
38620;BME280;24376;51.986;4.662;2022-12-29T06:39:26;100412.47;;;9.49;100.00
38620;BME280;24376;51.986;4.662;2022-12-29T06:41:51;100353.13;;;9.45;100.00
38620;BME280;24376;51.986;4.662;2022-12-29T06:44:17;100253.75;;;9.40;100.00
38620;BME280;24376;51.986;4.662;2022-12-29T06:46:42;100204.59;;;9.22;100.00
38620;BME280;24376;51.986;4.662;2022-12-29T06:49:07;100174.00;;;9.17;100.00
38620;BME280;24376;51.986;4.662;2022-12-29T06:51:32;100141.78;;;9.16;100.00
38620;BME280;24376;51.986;4.662;2022-12-29T06:53:57;100116.34;;;9.07;100.00
38620;BME280;24376;51.986;4.662;2022-12-29T06:56:23;100081.50;;;9.05;100.00
38620;BME280;24376;51.986;4.662;2022-12-29T06:58:48;100077.88;;;8.99;100.00
38620;BME280;24376;51.986;4.662;2022-12-29T07:01:13;100074.25;;;8.92;100.00
38620;BME280;24376;51.986;4.662;2022-12-29T07:03:40;100082.88;;;8.88;100.00
38620;BME280;24376;51.986;4.662;2022-12-29T07:06:05;100087.22;;;8.88;100.00
38620;BME280;24376;51.986;4.662;2022-12-29T07:08:31;100104.69;;;8.92;100.00
38620;BME280;24376;51.986;4.662;2022-12-29T07:10:56;100122.13;;;8.93;100.00
38620;BME280;24376;51.986;4.662;2022-12-29T07:13:21;100123.97;;;8.97;100.00
38620;BME280;24376;51.986;4.662;2022-12-29T07:15:46;100128.91;;;8.85;100.00
38620;BME280;24376;51.986;4.662;2022-12-29T07:18:11;100151.66;;;8.89;100.00
38620;BME280;24376;51.986;4.662;2022-12-29T07:20:37;100177.75;;;8.89;100.00
38620;BME280;24376;51.986;4.662;2022-12-29T07:23:02;100213.44;;;8.88;100.00
38620;BME280;24376;51.986;4.662;2022-12-29T07:25:27;100233.72;;;9.00;100.00
38620;BME280;24376;51.986;4.662;2022-12-29T07:27:54;100234.63;;;9.02;100.00
38620;BME280;24376;51.986;4.662;2022-12-29T07:30:19;100246.97;;;9.09;100.00
38620;BME280;24376;51.986;4.662;2022-12-29T07:32:44;100241.06;;;9.18;100.00
38620;BME280;24376;51.986;4.662;2022-12-29T07:35:10;100225.41;;;9.19;100.00
38620;BME280;24376;51.986;4.662;2022-12-29T07:37:35;100212.44;;;9.22;100.00
38620;BME280;24376;51.986;4.662;2022-12-29T07:40:00;100189.19;;;9.35;100.00
38620;BME280;24376;51.986;4.662;2022-12-29T07:42:26;100148.19;;;9.32;100.00
38620;BME280;24376;51.986;4.662;2022-12-29T07:44:51;100133.22;;;9.23;100.00
38620;BME280;24376;51.986;4.662;2022-12-29T07:47:16;100107.13;;;9.26;100.00
38620;BME280;24376;51.986;4.662;2022-12-29T07:49:41;100097.84;;;9.41;100.00
38620;BME280;24376;51.986;4.662;2022-12-29T07:52:07;100062.94;;;9.37;100.00
38620;BME280;24376;51.986;4.662;2022-12-29T07:54:32;100028.28;;;9.46;100.00
38620;BME280;24376;51.986;4.662;2022-12-29T07:56:57;99984.81;;;9.52;100.00
38620;BME280;24376;51.986;4.662;2022-12-29T07:59:25;99945.63;;;9.54;100.00
38620;BME280;24376;51.986;4.662;2022-12-29T08:01:50;99883.19;;;9.72;100.00
38620;BME280;24376;51.986;4.662;2022-12-29T08:04:15;99850.91;;;9.69;100.00
38620;BME280;24376;51.986;4.662;2022-12-29T08:06:40;99846.50;;;9.66;100.00
38620;BME280;24376;51.986;4.662;2022-12-29T08:09:05;99832.53;;;9.63;100.00
38620;BME280;24376;51.986;4.662;2022-12-29T08:11:39;99819.53;;;9.69;100.00
38620;BME280;24376;51.986;4.662;2022-12-29T08:14:05;99821.22;;;9.64;100.00
38620;BME280;24376;51.986;4.662;2022-12-29T08:16:30;99815.09;;;9.63;100.00
38620;BME280;24376;51.986;4.662;2022-12-29T08:18:56;99814.13;;;9.56;100.00
38620;BME280;24376;51.986;4.662;2022-12-29T08:21:21;99792.50;;;9.68;100.00
38620;BME280;24376;51.986;4.662;2022-12-29T08:23:47;99795.72;;;9.49;100.00
38620;BME280;24376;51.986;4.662;2022-12-29T08:26:12;99813.06;;;9.41;100.00
38620;BME280;24376;51.986;4.662;2022-12-29T08:28:37;99825.09;;;9.32;100.00
38620;BME280;24376;51.986;4.662;2022-12-29T08:31:03;99839.22;;;9.44;100.00
38620;BME280;24376;51.986;4.662;2022-12-29T08:33:28;99852.97;;;9.32;100.00
38620;BME280;24376;51.986;4.662;2022-12-29T08:36:00;99890.41;;;9.32;100.00
38620;BME280;24376;51.986;4.662;2022-12-29T08:38:26;99893.00;;;9.31;100.00
38620;BME280;24376;51.986;4.662;2022-12-29T08:40:52;99923.50;;;9.32;100.00
38620;BME280;24376;51.986;4.662;2022-12-29T08:43:17;99962.34;;;9.12;100.00
38620;BME280;24376;51.986;4.662;2022-12-29T08:45:42;100019.69;;;9.06;100.00
38620;BME280;24376;51.986;4.662;2022-12-29T08:48:07;100064.09;;;9.06;100.00
38620;BME280;24376;51.986;4.662;2022-12-29T08:50:32;100106.75;;;9.06;100.00
38620;BME280;24376;51.986;4.662;2022-12-29T08:52:58;101879.84;;;8.96;100.00
38620;BME280;24376;51.986;4.662;2022-12-29T08:55:23;101047.22;;;8.87;100.00
38620;BME280;24376;51.986;4.662;2022-12-29T08:57:48;100842.41;;;8.80;100.00
38620;BME280;24376;51.986;4.662;2022-12-29T09:00:13;100807.25;;;8.96;100.00
38620;BME280;24376;51.986;4.662;2022-12-29T09:02:39;100766.16;;;8.91;100.00
38620;BME280;24376;51.986;4.662;2022-12-29T09:05:05;100770.50;;;8.90;100.00
38620;BME280;24376;51.986;4.662;2022-12-29T09:07:30;100757.94;;;8.78;100.00
38620;BME280;24376;51.986;4.662;2022-12-29T09:09:55;100783.22;;;8.79;100.00
38620;BME280;24376;51.986;4.662;2022-12-29T09:12:21;100819.56;;;8.73;100.00
38620;BME280;24376;51.986;4.662;2022-12-29T09:14:46;100843.97;;;8.75;100.00
38620;BME280;24376;51.986;4.662;2022-12-29T09:17:11;100866.34;;;8.67;100.00
38620;BME280;24376;51.986;4.662;2022-12-29T09:19:55;100909.31;;;8.77;100.00
38620;BME280;24376;51.986;4.662;2022-12-29T09:22:20;100940.66;;;8.77;100.00
38620;BME280;24376;51.986;4.662;2022-12-29T09:24:45;100954.63;;;8.79;100.00
38620;BME280;24376;51.986;4.662;2022-12-29T09:27:11;100991.16;;;8.77;100.00
38620;BME280;24376;51.986;4.662;2022-12-29T09:29:36;101014.75;;;8.80;100.00
38620;BME280;24376;51.986;4.662;2022-12-29T09:32:01;101040.34;;;8.91;100.00
38620;BME280;24376;51.986;4.662;2022-12-29T09:34:26;101053.31;;;8.88;100.00
38620;BME280;24376;51.986;4.662;2022-12-29T09:36:52;101069.00;;;8.88;100.00
38620;BME280;24376;51.986;4.662;2022-12-29T09:39:17;101085.75;;;8.94;100.00
38620;BME280;24376;51.986;4.662;2022-12-29T09:41:43;101078.09;;;8.99;100.00
38620;BME280;24376;51.986;4.662;2022-12-29T09:44:16;101101.72;;;9.02;100.00
38620;BME280;24376;51.986;4.662;2022-12-29T09:46:49;101105.19;;;9.02;100.00
38620;BME280;24376;51.986;4.662;2022-12-29T09:51:45;101105.44;;;9.09;100.00
38620;BME280;24376;51.986;4.662;2022-12-29T09:56:55;101117.94;;;9.17;100.00
38620;BME280;24376;51.986;4.662;2022-12-29T09:59:22;101125.78;;;9.17;100.00
38620;BME280;24376;51.986;4.662;2022-12-29T10:04:20;101155.47;;;9.19;100.00
38620;BME280;24376;51.986;4.662;2022-12-29T10:06:53;101174.69;;;9.21;100.00
38620;BME280;24376;51.986;4.662;2022-12-29T10:22:04;101236.72;;;9.27;100.00
38620;BME280;24376;51.986;4.662;2022-12-29T10:24:34;101253.25;;;9.26;100.00
38620;BME280;24376;51.986;4.662;2022-12-29T10:27:02;101258.66;;;9.30;100.00
38620;BME280;24376;51.986;4.662;2022-12-29T10:29:36;101277.09;;;9.33;100.00
38620;BME280;24376;51.986;4.662;2022-12-29T10:32:06;101279.00;;;9.39;100.00
38620;BME280;24376;51.986;4.662;2022-12-29T10:34:38;101257.56;;;9.48;100.00
38620;BME280;24376;51.986;4.662;2022-12-29T10:37:43;101238.03;;;9.62;100.00
38620;BME280;24376;51.986;4.662;2022-12-29T10:39:59;101198.09;;;9.66;100.00
38620;BME280;24376;51.986;4.662;2022-12-29T10:44:50;101141.31;;;9.88;100.00
38620;BME280;24376;51.986;4.662;2022-12-29T10:47:19;101124.06;;;9.93;100.00
38620;BME280;24376;51.986;4.662;2022-12-29T10:49:47;101077.84;;;9.93;100.00
38620;BME280;24376;51.986;4.662;2022-12-29T10:52:14;101029.81;;;9.91;100.00
38620;BME280;24376;51.986;4.662;2022-12-29T10:57:15;100946.69;;;9.81;100.00
38620;BME280;24376;51.986;4.662;2022-12-29T10:59:45;100890.78;;;9.77;100.00
38620;BME280;24376;51.986;4.662;2022-12-29T11:07:06;100822.53;;;9.98;100.00
38620;BME280;24376;51.986;4.662;2022-12-29T11:09:33;100796.31;;;9.97;100.00
38620;BME280;24376;51.986;4.662;2022-12-29T11:11:59;100777.41;;;10.07;100.00
38620;BME280;24376;51.986;4.662;2022-12-29T11:14:26;100765.59;;;10.21;100.00
38620;BME280;24376;51.986;4.662;2022-12-29T11:16:58;100752.53;;;10.23;100.00
38620;BME280;24376;51.986;4.662;2022-12-29T11:19:28;100750.56;;;10.14;100.00
38620;BME280;24376;51.986;4.662;2022-12-29T11:21:53;100736.75;;;10.20;100.00
38620;BME280;24376;51.986;4.662;2022-12-29T11:24:25;100720.53;;;10.00;100.00
38620;BME280;24376;51.986;4.662;2022-12-29T11:26:51;100739.84;;;10.03;100.00
38620;BME280;24376;51.986;4.662;2022-12-29T11:29:26;100726.69;;;10.02;100.00
38620;BME280;24376;51.986;4.662;2022-12-29T11:31:52;100717.81;;;9.95;100.00
38620;BME280;24376;51.986;4.662;2022-12-29T11:34:23;100774.50;;;9.96;100.00
38620;BME280;24376;51.986;4.662;2022-12-29T11:36:50;100815.78;;;10.06;100.00
38620;BME280;24376;51.986;4.662;2022-12-29T11:39:23;100808.63;;;10.01;100.00
38620;BME280;24376;51.986;4.662;2022-12-29T11:41:52;100785.19;;;10.04;100.00
38620;BME280;24376;51.986;4.662;2022-12-29T11:44:18;100753.63;;;9.98;100.00
38620;BME280;24376;51.986;4.662;2022-12-29T11:46:44;100739.19;;;10.12;100.00
38620;BME280;24376;51.986;4.662;2022-12-29T11:49:12;100712.41;;;10.22;100.00
38620;BME280;24376;51.986;4.662;2022-12-29T11:51:45;100692.84;;;10.08;100.00
38620;BME280;24376;51.986;4.662;2022-12-29T11:54:33;100678.84;;;10.06;100.00
38620;BME280;24376;51.986;4.662;2022-12-29T11:56:57;100657.09;;;10.08;100.00
38620;BME280;24376;51.986;4.662;2022-12-29T12:01:59;100595.59;;;10.24;100.00
38620;BME280;24376;51.986;4.662;2022-12-29T12:04:28;100550.38;;;10.30;100.00
38620;BME280;24376;51.986;4.662;2022-12-29T12:09:28;100470.00;;;10.24;100.00
38620;BME280;24376;51.986;4.662;2022-12-29T12:11:54;100434.09;;;10.19;100.00
38620;BME280;24376;51.986;4.662;2022-12-29T12:14:42;100402.91;;;10.28;100.00
38620;BME280;24376;51.986;4.662;2022-12-29T12:17:08;100384.63;;;10.29;100.00
38620;BME280;24376;51.986;4.662;2022-12-29T12:19:40;100340.25;;;10.35;100.00
38620;BME280;24376;51.986;4.662;2022-12-29T12:22:12;100326.94;;;10.23;100.00
38620;BME280;24376;51.986;4.662;2022-12-29T12:35:10;100163.38;;;10.48;100.00
38620;BME280;24376;51.986;4.662;2022-12-29T13:00:36;100153.66;;;10.41;100.00
38620;BME280;24376;51.986;4.662;2022-12-29T13:10:51;100159.66;;;10.32;100.00
38620;BME280;24376;51.986;4.662;2022-12-29T13:23:53;100163.25;;;10.41;100.00
38620;BME280;24376;51.986;4.662;2022-12-29T13:26:35;100169.44;;;10.44;100.00
38620;BME280;24376;51.986;4.662;2022-12-29T13:29:08;100187.41;;;10.24;100.00
38620;BME280;24376;51.986;4.662;2022-12-29T13:31:43;100218.13;;;10.34;100.00
38620;BME280;24376;51.986;4.662;2022-12-29T13:34:31;100255.72;;;9.94;100.00
38620;BME280;24376;51.986;4.662;2022-12-29T13:37:12;100294.56;;;9.74;100.00
38620;BME280;24376;51.986;4.662;2022-12-29T13:39:47;100354.03;;;9.45;100.00
38620;BME280;24376;51.986;4.662;2022-12-29T13:42:13;100376.56;;;9.40;100.00
38620;BME280;24376;51.986;4.662;2022-12-29T13:44:43;100412.13;;;9.33;100.00
38620;BME280;24376;51.986;4.662;2022-12-29T13:47:32;100473.19;;;9.39;100.00
38620;BME280;24376;51.986;4.662;2022-12-29T13:49:56;100495.66;;;9.30;100.00
38620;BME280;24376;51.986;4.662;2022-12-29T13:57:35;100588.38;;;9.13;100.00
38620;BME280;24376;51.986;4.662;2022-12-29T14:00:26;100628.28;;;9.09;100.00
38620;BME280;24376;51.986;4.662;2022-12-29T14:05:31;100653.84;;;9.19;100.00
38620;BME280;24376;51.986;4.662;2022-12-29T14:07:57;100640.09;;;9.26;100.00
38620;BME280;24376;51.986;4.662;2022-12-29T14:10:25;100641.75;;;9.23;100.00
38620;BME280;24376;51.986;4.662;2022-12-29T14:12:52;100635.72;;;9.25;100.00
38620;BME280;24376;51.986;4.662;2022-12-29T14:15:24;100640.19;;;9.29;100.00
38620;BME280;24376;51.986;4.662;2022-12-29T14:18:51;100654.19;;;9.31;100.00
38620;BME280;24376;51.986;4.662;2022-12-29T14:20:55;100672.47;;;9.31;100.00
38620;BME280;24376;51.986;4.662;2022-12-29T14:28:31;100743.84;;;9.29;100.00
38620;BME280;24376;51.986;4.662;2022-12-29T14:30:57;100765.81;;;9.36;100.00
38620;BME280;24376;51.986;4.662;2022-12-29T14:33:23;100781.72;;;9.45;100.00
38620;BME280;24376;51.986;4.662;2022-12-29T14:35:51;100793.81;;;9.40;100.00
38620;BME280;24376;51.986;4.662;2022-12-29T14:38:27;100793.88;;;9.43;100.00
38620;BME280;24376;51.986;4.662;2022-12-29T14:41:15;100809.50;;;9.40;100.00
38620;BME280;24376;51.986;4.662;2022-12-29T14:43:39;100794.72;;;9.42;100.00
38620;BME280;24376;51.986;4.662;2022-12-29T14:46:04;100806.88;;;9.40;100.00
38620;BME280;24376;51.986;4.662;2022-12-29T14:50:58;100809.56;;;9.43;100.00
38620;BME280;24376;51.986;4.662;2022-12-29T14:56:08;100813.03;;;9.42;100.00
38620;BME280;24376;51.986;4.662;2022-12-29T14:58:48;100799.91;;;9.40;100.00
38620;BME280;24376;51.986;4.662;2022-12-29T15:01:19;100798.13;;;9.39;100.00
38620;BME280;24376;51.986;4.662;2022-12-29T15:03:45;100803.22;;;9.35;100.00
38620;BME280;24376;51.986;4.662;2022-12-29T15:06:14;100790.28;;;9.39;100.00
38620;BME280;24376;51.986;4.662;2022-12-29T15:08:45;100791.22;;;9.41;100.00
38620;BME280;24376;51.986;4.662;2022-12-29T15:13:41;100768.41;;;9.36;100.00
38620;BME280;24376;51.986;4.662;2022-12-29T15:19:01;100759.00;;;9.41;100.00
38620;BME280;24376;51.986;4.662;2022-12-29T15:21:31;100745.91;;;9.41;100.00